createdAt,value
2018-08-03T04:09:53.231Z,22.2
2018-08-03T04:10:18.752Z,22.2
2018-08-03T04:10:44.244Z,22.2
2018-08-03T04:11:09.756Z,22.11
2018-08-03T04:11:35.206Z,22.25
2018-08-03T04:12:00.717Z,22.22
2018-08-03T04:12:26.133Z,22.15
2018-08-03T04:12:51.611Z,22.14
2018-08-03T04:13:17.092Z,22.07
2018-08-03T04:13:42.540Z,22.17
2018-08-03T04:14:08.050Z,22.18
2018-08-03T04:14:33.515Z,22.22
2018-08-03T04:14:58.981Z,22.17
2018-08-03T04:15:24.447Z,22.13
2018-08-03T04:15:49.938Z,22.15
2018-08-03T04:16:15.352Z,22.08
2018-08-03T04:16:40.818Z,22.13
2018-08-03T04:17:06.287Z,22.08
2018-08-03T04:17:31.782Z,22.11
2018-08-03T04:17:57.245Z,22.11
2018-08-03T04:18:22.707Z,22.11
2018-08-03T04:18:48.195Z,22.08
2018-08-03T04:19:13.665Z,22.1
2018-08-03T04:19:39.801Z,22.15
2018-08-03T04:20:04.683Z,22.15
2018-08-03T04:20:30.209Z,22.06
2018-08-03T04:20:55.688Z,22.15
2018-08-03T04:21:21.162Z,22.07
2018-08-03T04:21:46.650Z,22.11
2018-08-03T04:22:12.164Z,22.08
2018-08-03T04:22:37.650Z,22.1
2018-08-03T04:23:03.137Z,22.06
2018-08-03T04:23:28.669Z,22.08
2018-08-03T04:23:54.151Z,22.18
2018-08-03T04:24:19.662Z,22.2
2018-08-03T04:24:45.135Z,22.17
2018-08-03T04:25:10.638Z,22.18
2018-08-03T04:25:36.193Z,22.14
2018-08-03T04:26:01.630Z,22.17
2018-08-03T04:26:27.156Z,22.17
2018-08-03T04:26:52.650Z,22.23
2018-08-03T04:27:18.150Z,22.2
2018-08-03T04:27:43.645Z,22.14
2018-08-03T04:28:09.178Z,22.22
2018-08-03T04:28:34.689Z,22.22
2018-08-03T04:29:00.179Z,22.22
2018-08-03T04:29:25.674Z,22.22
2018-08-03T04:29:51.219Z,22.2
2018-08-03T04:30:16.748Z,22.2
2018-08-03T04:30:42.209Z,22.2
2018-08-03T04:31:07.752Z,22.2
2018-08-03T04:31:33.271Z,22.2
2018-08-03T04:31:58.742Z,22.23
2018-08-03T04:32:24.234Z,22.2
2018-08-03T04:32:49.738Z,22.25
2018-08-03T04:33:15.237Z,22.25
2018-08-03T04:33:40.737Z,22.26
2018-08-03T04:34:06.246Z,22.29
2018-08-03T04:34:31.758Z,22.2
2018-08-03T04:34:57.220Z,22.22
2018-08-03T04:35:22.740Z,22.18
2018-08-03T04:35:48.215Z,22.25
2018-08-03T04:36:13.738Z,22.22
2018-08-03T04:36:39.311Z,22.32
2018-08-03T04:37:04.841Z,22.18
2018-08-03T04:37:30.713Z,22.29
2018-08-03T04:37:56.247Z,22.28
2018-08-03T04:38:21.886Z,22.29
2018-08-03T04:38:47.361Z,22.2
2018-08-03T04:39:12.930Z,22.33
2018-08-03T04:39:38.419Z,22.32
2018-08-03T04:40:03.957Z,22.28
2018-08-03T04:40:29.466Z,22.32
2018-08-03T04:41:22.891Z,22.3
2018-08-03T04:41:48.422Z,22.32
2018-08-03T04:42:13.946Z,22.25
2018-08-03T04:42:39.574Z,22.38
2018-08-03T04:43:04.916Z,22.41
2018-08-03T04:43:30.393Z,22.44
2018-08-03T04:43:56.015Z,22.39
2018-08-03T04:44:21.400Z,22.38
2018-08-03T04:44:46.877Z,22.39
2018-08-03T04:45:12.384Z,22.41
2018-08-03T04:45:37.858Z,22.48
2018-08-03T04:46:03.364Z,22.45
2018-08-03T04:46:28.877Z,22.44
2018-08-03T04:46:54.369Z,22.39
2018-08-03T04:47:19.863Z,22.43
2018-08-03T04:47:45.330Z,22.33
2018-08-03T04:48:10.867Z,22.44
2018-08-03T04:48:36.370Z,22.39
2018-08-03T04:49:01.869Z,22.39
2018-08-03T04:49:27.366Z,22.41
2018-08-03T04:49:52.834Z,22.38
2018-08-03T04:50:18.316Z,22.39
2018-08-03T04:50:43.794Z,22.51
2018-08-03T04:51:09.292Z,22.39
2018-08-03T04:51:34.781Z,22.51
2018-08-03T04:52:00.264Z,22.51
2018-08-03T04:52:25.763Z,22.53
2018-08-03T04:52:51.383Z,22.54
2018-08-03T04:53:16.783Z,22.59
2018-08-03T04:53:42.300Z,22.55
2018-08-03T04:54:07.828Z,22.53
2018-08-03T04:54:33.286Z,22.66
2018-08-03T04:54:58.775Z,22.69
2018-08-03T04:55:24.314Z,22.72
2018-08-03T04:55:49.802Z,22.72
2018-08-03T04:56:15.271Z,22.7
2018-08-03T04:56:40.715Z,22.8
2018-08-03T04:57:06.251Z,22.88
2018-08-03T04:57:31.777Z,22.9
2018-08-03T04:57:57.236Z,22.91
2018-08-03T04:58:22.759Z,22.94
2018-08-03T04:58:48.256Z,23
2018-08-03T04:59:13.766Z,22.98
2018-08-03T04:59:39.256Z,23.02
2018-08-03T05:00:04.780Z,23.03
2018-08-03T05:00:30.267Z,23.1
2018-08-03T05:00:55.741Z,23.12
2018-08-03T05:01:21.244Z,23.1
2018-08-03T05:01:46.777Z,23.2
2018-08-03T05:02:12.296Z,23.12
2018-08-03T05:02:37.782Z,23.21
2018-08-03T05:03:03.288Z,23.27
2018-08-03T05:03:28.871Z,23.25
2018-08-03T05:03:54.377Z,23.24
2018-08-03T05:04:19.892Z,23.4
2018-08-03T05:04:45.371Z,23.4
2018-08-03T05:05:10.834Z,23.51
2018-08-03T05:05:36.363Z,23.39
2018-08-03T05:06:01.895Z,23.58
2018-08-03T05:06:27.367Z,23.58
2018-08-03T05:07:20.819Z,23.55
2018-08-03T05:07:46.309Z,23.65
2018-08-03T05:08:11.810Z,23.63
2018-08-03T05:08:37.311Z,23.65
2018-08-03T05:09:02.838Z,23.69
2018-08-03T05:09:28.298Z,23.68
2018-08-03T05:09:53.803Z,23.74
2018-08-03T05:10:19.310Z,23.77
2018-08-03T05:10:44.793Z,23.87
2018-08-03T05:11:10.276Z,23.84
2018-08-03T05:11:35.750Z,23.91
2018-08-03T05:12:01.242Z,23.84
2018-08-03T05:12:26.726Z,23.98
2018-08-03T05:12:52.236Z,23.91
2018-08-03T05:13:17.721Z,23.92
2018-08-03T05:13:43.264Z,23.98
2018-08-03T05:14:08.784Z,24.01
2018-08-03T05:14:34.275Z,24.01
2018-08-03T05:14:59.783Z,23.99
2018-08-03T05:15:25.325Z,24.02
2018-08-03T05:15:50.769Z,23.98
2018-08-03T05:16:16.271Z,23.98
2018-08-03T05:16:41.751Z,23.98
2018-08-03T05:17:07.262Z,24.02
2018-08-03T05:17:32.733Z,24.01
2018-08-03T05:17:58.231Z,24.03
2018-08-03T05:18:23.745Z,23.96
2018-08-03T05:18:49.195Z,24.01
2018-08-03T05:19:14.721Z,24.03
2018-08-03T05:19:40.164Z,24.03
2018-08-03T05:20:05.659Z,24.1
2018-08-03T05:20:31.142Z,24.06
2018-08-03T05:20:56.638Z,24.06
2018-08-03T05:21:22.131Z,24.1
2018-08-03T05:21:47.611Z,24.17
2018-08-03T05:22:13.107Z,24.11
2018-08-03T05:22:38.626Z,24.17
2018-08-03T05:23:04.091Z,24.14
2018-08-03T05:23:29.574Z,24.21
2018-08-03T05:23:55.090Z,24.23
2018-08-03T05:24:20.640Z,24.26
2018-08-03T05:24:46.115Z,24.28
2018-08-03T05:25:11.593Z,24.24
2018-08-03T05:25:37.094Z,24.29
2018-08-03T05:26:02.575Z,24.28
2018-08-03T05:26:28.105Z,24.38
2018-08-03T05:26:53.566Z,24.43
2018-08-03T05:27:19.057Z,24.45
2018-08-03T05:27:44.568Z,24.39
2018-08-03T05:28:10.049Z,24.55
2018-08-03T05:28:35.512Z,24.51
2018-08-03T05:29:01.009Z,24.5
2018-08-03T05:29:26.546Z,24.48
2018-08-03T05:29:51.982Z,24.55
2018-08-03T05:30:17.512Z,24.6
2018-08-03T05:30:43.032Z,24.6
2018-08-03T05:31:08.623Z,24.61
2018-08-03T05:31:34.045Z,24.61
2018-08-03T05:32:42.760Z,24.66
2018-08-03T05:33:08.259Z,24.69
2018-08-03T05:33:33.749Z,24.74
2018-08-03T05:33:59.241Z,24.68
2018-08-03T05:34:24.740Z,24.81
2018-08-03T05:34:50.218Z,24.92
2018-08-03T05:35:15.712Z,24.84
2018-08-03T05:35:41.221Z,24.95
2018-08-03T05:36:06.792Z,24.95
2018-08-03T05:36:32.209Z,25.04
2018-08-03T05:36:57.707Z,25.01
2018-08-03T05:37:23.182Z,25.08
2018-08-03T05:37:48.729Z,25.11
2018-08-03T05:38:14.217Z,25.14
2018-08-03T05:38:39.737Z,25.16
2018-08-03T05:39:05.192Z,25.23
2018-08-03T05:39:30.669Z,25.18
2018-08-03T05:39:56.172Z,25.26
2018-08-03T05:40:21.666Z,25.31
2018-08-03T05:40:47.134Z,25.35
2018-08-03T05:41:12.606Z,25.38
2018-08-03T05:41:38.138Z,25.4
2018-08-03T05:42:03.622Z,25.41
2018-08-03T05:42:29.178Z,25.51
2018-08-03T05:42:54.616Z,25.55
2018-08-03T05:43:20.126Z,25.47
2018-08-03T05:43:45.616Z,25.54
2018-08-03T05:44:11.115Z,25.65
2018-08-03T05:44:36.585Z,25.65
2018-08-03T05:45:02.116Z,25.66
2018-08-03T05:45:27.696Z,25.65
2018-08-03T05:45:53.120Z,25.73
2018-08-03T05:46:18.576Z,25.77
2018-08-03T05:46:44.076Z,25.78
2018-08-03T05:47:09.554Z,25.83
2018-08-03T05:47:35.178Z,25.9
2018-08-03T05:48:00.615Z,25.85
2018-08-03T05:48:26.113Z,25.87
2018-08-03T05:48:51.630Z,25.93
2018-08-03T05:49:17.130Z,26.07
2018-08-03T05:49:42.608Z,25.98
2018-08-03T05:50:08.177Z,26.02
2018-08-03T05:50:33.639Z,26.03
2018-08-03T05:50:59.199Z,26
2018-08-03T05:51:47.535Z,26.1
2018-08-03T05:52:13.017Z,26.05
2018-08-03T05:52:38.504Z,26.1
2018-08-03T05:53:04.016Z,26.15
2018-08-03T05:53:29.463Z,26.18
2018-08-03T05:53:54.967Z,26.16
2018-08-03T05:54:20.503Z,26.22
2018-08-03T05:54:46.019Z,26.23
2018-08-03T05:55:11.594Z,26.25
2018-08-03T05:55:37.078Z,26.22
2018-08-03T05:56:02.635Z,26.29
2018-08-03T05:56:28.134Z,26.33
2018-08-03T05:56:53.655Z,26.36
2018-08-03T05:57:19.156Z,26.34
2018-08-03T05:57:44.692Z,26.37
2018-08-03T05:58:10.188Z,26.36
2018-08-03T05:58:35.711Z,26.43
2018-08-03T05:59:01.182Z,26.41
2018-08-03T05:59:26.674Z,26.52
2018-08-03T05:59:52.166Z,26.52
2018-08-03T06:00:17.684Z,26.51
2018-08-03T06:00:43.178Z,26.51
2018-08-03T06:01:08.768Z,26.56
2018-08-03T06:01:34.153Z,26.6
2018-08-03T06:01:59.652Z,26.56
2018-08-03T06:03:03.300Z,26.56
2018-08-03T06:03:28.804Z,26.6
2018-08-03T06:03:54.322Z,26.58
2018-08-03T06:04:19.826Z,26.51
2018-08-03T06:04:45.313Z,26.6
2018-08-03T06:05:10.819Z,26.55
2018-08-03T06:05:36.325Z,26.6
2018-08-03T06:06:01.814Z,26.63
2018-08-03T06:06:27.308Z,26.6
2018-08-03T06:06:52.817Z,26.58
2018-08-03T06:07:18.317Z,26.62
2018-08-03T06:07:43.822Z,26.59
2018-08-03T06:08:09.417Z,26.6
2018-08-03T06:08:34.847Z,26.62
2018-08-03T06:09:00.391Z,26.62
2018-08-03T06:09:25.893Z,26.58
2018-08-03T06:09:51.378Z,26.65
2018-08-03T06:10:16.888Z,26.7
2018-08-03T06:10:42.360Z,26.66
2018-08-03T06:11:07.862Z,26.75
2018-08-03T06:11:33.352Z,26.73
2018-08-03T06:11:58.914Z,26.75
2018-08-03T06:12:24.441Z,26.77
2018-08-03T06:12:49.909Z,26.84
2018-08-03T06:13:15.451Z,26.77
2018-08-03T06:13:40.976Z,26.81
2018-08-03T06:14:06.536Z,26.85
2018-08-03T06:14:32.034Z,26.78
2018-08-03T06:14:57.601Z,26.89
2018-08-03T06:15:23.058Z,26.88
2018-08-03T06:15:48.543Z,26.92
2018-08-03T06:16:14.013Z,26.92
2018-08-03T06:16:39.510Z,26.89
2018-08-03T06:17:05.073Z,26.92
2018-08-03T06:17:30.484Z,26.99
2018-08-03T06:17:55.990Z,26.95
2018-08-03T06:18:21.442Z,26.97
2018-08-03T06:18:46.960Z,26.95
2018-08-03T06:19:12.459Z,26.96
2018-08-03T06:19:37.860Z,26.99
2018-08-03T06:20:03.407Z,26.95
2018-08-03T06:20:28.884Z,27.08
2018-08-03T06:20:54.313Z,27.08
2018-08-03T06:21:19.810Z,27.12
2018-08-03T06:21:45.293Z,27.1
2018-08-03T06:22:10.772Z,27.1
2018-08-03T06:22:36.258Z,27.18
2018-08-03T06:23:01.693Z,27.22
2018-08-03T06:23:27.177Z,27.2
2018-08-03T06:23:52.671Z,27.26
2018-08-03T06:24:18.139Z,27.26
2018-08-03T06:24:43.603Z,27.29
2018-08-03T06:25:09.107Z,27.3
2018-08-03T06:25:34.578Z,27.42
2018-08-03T06:26:00.082Z,27.27
2018-08-03T06:26:25.579Z,27.35
2018-08-03T06:26:51.083Z,27.39
2018-08-03T06:27:16.532Z,27.4
2018-08-03T06:27:42.019Z,27.45
2018-08-03T06:28:07.488Z,27.44
2018-08-03T06:28:33.054Z,27.47
2018-08-03T06:28:58.453Z,27.51
2018-08-03T06:29:23.973Z,27.55
2018-08-03T06:29:49.556Z,27.55
2018-08-03T06:30:14.921Z,27.58
2018-08-03T06:30:40.380Z,27.51
2018-08-03T06:31:05.991Z,27.71
2018-08-03T06:31:31.389Z,27.65
2018-08-03T06:31:56.882Z,27.74
2018-08-03T06:32:22.352Z,27.77
2018-08-03T06:32:47.814Z,27.75
2018-08-03T06:33:13.269Z,27.73
2018-08-03T06:33:38.764Z,27.78
2018-08-03T06:34:04.243Z,27.77
2018-08-03T06:34:29.773Z,27.78
2018-08-03T06:34:55.194Z,27.85
2018-08-03T06:35:20.672Z,27.75
2018-08-03T06:35:46.140Z,27.75
2018-08-03T06:36:11.670Z,27.78
2018-08-03T06:36:37.129Z,27.82
2018-08-03T06:37:02.608Z,27.89
2018-08-03T06:37:28.090Z,27.87
2018-08-03T06:37:53.618Z,27.89
2018-08-03T06:38:19.109Z,27.93
2018-08-03T06:38:44.580Z,27.93
2018-08-03T06:39:10.093Z,27.92
2018-08-03T06:39:35.515Z,27.95
2018-08-03T06:40:00.997Z,27.93
2018-08-03T06:40:26.524Z,27.96
2018-08-03T06:40:52.016Z,27.95
2018-08-03T06:41:17.540Z,28
2018-08-03T06:41:42.961Z,28
2018-08-03T06:42:08.437Z,28.1
2018-08-03T06:42:33.958Z,28.11
2018-08-03T06:42:59.430Z,28.05
2018-08-03T06:43:24.925Z,28.19
2018-08-03T06:43:50.366Z,28.15
2018-08-03T06:44:15.901Z,28.19
2018-08-03T06:44:41.388Z,28.27
2018-08-03T06:45:06.846Z,28.26
2018-08-03T06:45:32.307Z,28.37
2018-08-03T06:45:57.801Z,28.3
2018-08-03T06:46:23.307Z,28.35
2018-08-03T06:46:48.808Z,28.37
2018-08-03T06:47:14.240Z,28.45
2018-08-03T06:47:39.790Z,28.38
2018-08-03T06:48:05.294Z,28.39
2018-08-03T06:48:30.905Z,28.39
2018-08-03T06:48:56.293Z,28.47
2018-08-03T06:49:21.813Z,28.45
2018-08-03T06:49:47.193Z,28.45
2018-08-03T06:50:12.720Z,28.44
2018-08-03T06:50:38.266Z,28.47
2018-08-03T06:51:03.673Z,28.51
2018-08-03T06:51:29.168Z,28.45
2018-08-03T06:51:54.674Z,28.45
2018-08-03T06:52:20.168Z,28.52
2018-08-03T06:52:45.649Z,28.52
2018-08-03T06:53:11.083Z,28.52
2018-08-03T06:53:36.596Z,28.62
2018-08-03T06:54:02.058Z,28.62
2018-08-03T06:54:27.547Z,28.56
2018-08-03T06:54:53.043Z,28.66
2018-08-03T06:55:18.497Z,28.72
2018-08-03T06:55:44.002Z,28.72
2018-08-03T06:56:09.554Z,28.69
2018-08-03T06:56:34.983Z,28.76
2018-08-03T06:57:00.469Z,28.72
2018-08-03T06:57:26.024Z,28.78
2018-08-03T06:57:51.572Z,28.79
2018-08-03T06:58:17.049Z,28.84
2018-08-03T06:58:42.520Z,28.85
2018-08-03T06:59:07.989Z,28.86
2018-08-03T06:59:33.438Z,28.89
2018-08-03T06:59:58.997Z,28.94
2018-08-03T07:00:24.421Z,28.94
2018-08-03T07:00:49.920Z,29.12
2018-08-03T07:01:15.343Z,29.12
2018-08-03T07:01:40.852Z,29.1
2018-08-03T07:02:06.325Z,29.14
2018-08-03T07:02:31.857Z,29.19
2018-08-03T07:02:57.425Z,29.17
2018-08-03T07:03:22.835Z,29.16
2018-08-03T07:03:48.305Z,29.17
2018-08-03T07:04:13.803Z,29.16
2018-08-03T07:04:39.302Z,29.29
2018-08-03T07:05:04.810Z,29.31
2018-08-03T07:05:30.275Z,29.2
2018-08-03T07:05:55.751Z,29.29
2018-08-03T07:06:21.264Z,29.24
2018-08-03T07:06:46.731Z,29.17
2018-08-03T07:07:12.130Z,29.2
2018-08-03T07:07:37.618Z,29.23
2018-08-03T07:08:03.195Z,29.32
2018-08-03T07:08:28.643Z,29.29
2018-08-03T07:08:54.174Z,29.36
2018-08-03T07:09:19.648Z,29.32
2018-08-03T07:09:45.047Z,29.32
2018-08-03T07:10:10.555Z,29.38
2018-08-03T07:10:36.013Z,29.41
2018-08-03T07:11:01.556Z,29.39
2018-08-03T07:11:26.968Z,29.42
2018-08-03T07:11:52.501Z,29.42
2018-08-03T07:12:17.981Z,29.49
2018-08-03T07:12:43.458Z,29.5
2018-08-03T07:13:08.913Z,29.56
2018-08-03T07:13:34.348Z,29.57
2018-08-03T07:13:59.818Z,29.59
2018-08-03T07:14:25.278Z,29.59
2018-08-03T07:14:50.797Z,29.59
2018-08-03T07:15:16.226Z,29.57
2018-08-03T07:15:41.732Z,29.54
2018-08-03T07:16:07.221Z,29.63
2018-08-03T07:16:32.655Z,29.65
2018-08-03T07:16:58.224Z,29.66
2018-08-03T07:17:23.707Z,29.76
2018-08-03T07:17:49.184Z,29.65
2018-08-03T07:18:14.680Z,29.76
2018-08-03T07:18:40.104Z,29.76
2018-08-03T07:19:05.599Z,29.84
2018-08-03T07:19:31.125Z,29.95
2018-08-03T07:19:56.609Z,29.91
2018-08-03T07:20:22.333Z,29.98
2018-08-03T07:20:47.615Z,29.93
2018-08-03T07:21:13.045Z,30.02
2018-08-03T07:21:38.491Z,30.02
2018-08-03T07:22:04.007Z,30.08
2018-08-03T07:22:29.499Z,30.09
2018-08-03T07:22:54.971Z,30.13
2018-08-03T07:23:20.479Z,30.13
2018-08-03T07:23:45.959Z,30.12
2018-08-03T07:24:11.458Z,30.09
2018-08-03T07:24:36.936Z,30.06
2018-08-03T07:25:02.447Z,30.1
2018-08-03T07:25:27.914Z,30.06
2018-08-03T07:25:53.462Z,30.08
2018-08-03T07:26:18.915Z,30.09
2018-08-03T07:26:44.380Z,30.12
2018-08-03T07:27:09.851Z,30.15
2018-08-03T07:27:35.381Z,30.13
2018-08-03T07:28:00.856Z,30.21
2018-08-03T07:28:26.349Z,30.15
2018-08-03T07:28:51.841Z,30.16
2018-08-03T07:29:17.328Z,30.19
2018-08-03T07:29:42.839Z,30.15
2018-08-03T07:30:08.335Z,30.18
2018-08-03T07:30:33.873Z,30.19
2018-08-03T07:30:59.392Z,30.18
2018-08-03T07:31:24.886Z,30.23
2018-08-03T07:31:50.352Z,30.16
2018-08-03T07:32:15.842Z,30.16
2018-08-03T07:32:41.383Z,30.12
2018-08-03T07:33:06.884Z,30.03
2018-08-03T07:34:06.163Z,30.15
2018-08-03T07:34:31.709Z,30.16
2018-08-03T07:34:57.203Z,30.21
2018-08-03T07:35:22.656Z,30.18
2018-08-03T07:35:48.161Z,30.28
2018-08-03T07:36:13.660Z,30.31
2018-08-03T07:36:39.149Z,30.25
2018-08-03T07:37:04.605Z,30.31
2018-08-03T07:37:30.098Z,30.32
2018-08-03T07:37:55.565Z,30.4
2018-08-03T07:38:21.026Z,30.5
2018-08-03T07:38:46.502Z,30.39
2018-08-03T07:39:12.027Z,30.54
2018-08-03T07:39:37.521Z,30.51
2018-08-03T07:40:03.069Z,30.51
2018-08-03T07:40:28.480Z,30.51
2018-08-03T07:40:54.040Z,30.63
2018-08-03T07:41:19.503Z,30.69
2018-08-03T07:41:44.976Z,30.65
2018-08-03T07:42:10.478Z,30.77
2018-08-03T07:42:35.926Z,30.69
2018-08-03T07:43:01.460Z,30.77
2018-08-03T07:43:26.933Z,30.78
2018-08-03T07:43:52.394Z,30.83
2018-08-03T07:44:17.964Z,30.83
2018-08-03T07:44:43.451Z,30.81
2018-08-03T07:45:08.866Z,30.87
2018-08-03T07:45:34.376Z,30.81
2018-08-03T07:45:59.860Z,30.8
2018-08-03T07:46:25.254Z,30.9
2018-08-03T07:46:50.791Z,30.9
2018-08-03T07:47:16.261Z,30.96
2018-08-03T07:47:41.867Z,31.02
2018-08-03T07:48:07.347Z,31.06
2018-08-03T07:48:32.850Z,31.03
2018-08-03T07:48:58.393Z,31.1
2018-08-03T07:49:23.820Z,31.12
2018-08-03T07:49:49.345Z,31.17
2018-08-03T07:50:14.809Z,31.1
2018-08-03T07:50:40.255Z,31.17
2018-08-03T07:51:05.777Z,31.17
2018-08-03T07:51:31.315Z,31.18
2018-08-03T07:51:56.725Z,31.17
2018-08-03T07:52:22.285Z,31.14
2018-08-03T07:52:47.726Z,31.14
2018-08-03T07:53:13.208Z,31.18
2018-08-03T07:53:38.650Z,31.29
2018-08-03T07:54:04.125Z,31.18
2018-08-03T07:54:29.594Z,31.21
2018-08-03T07:54:55.089Z,31.27
2018-08-03T07:55:20.548Z,31.25
2018-08-03T07:55:46.038Z,31.34
2018-08-03T07:56:11.532Z,31.36
2018-08-03T07:56:37.049Z,31.34
2018-08-03T07:57:35.604Z,31.42
2018-08-03T07:58:01.098Z,31.46
2018-08-03T07:58:26.603Z,31.49
2018-08-03T07:58:52.124Z,31.52
2018-08-03T07:59:17.603Z,31.46
2018-08-03T07:59:43.122Z,31.49
2018-08-03T08:00:08.588Z,31.55
2018-08-03T08:00:34.114Z,31.55
2018-08-03T08:00:59.618Z,31.59
2018-08-03T08:01:25.146Z,31.54
2018-08-03T08:01:50.672Z,31.61
2018-08-03T08:02:16.184Z,31.59
2018-08-03T08:02:41.660Z,31.54
2018-08-03T08:03:07.225Z,31.62
2018-08-03T08:03:32.667Z,31.64
2018-08-03T08:03:58.182Z,31.64
2018-08-03T08:04:23.690Z,31.52
2018-08-03T08:04:49.171Z,31.58
2018-08-03T08:05:14.662Z,31.46
2018-08-03T08:05:40.183Z,31.43
2018-08-03T08:06:05.700Z,31.42
2018-08-03T08:06:31.191Z,31.49
2018-08-03T08:06:56.671Z,31.49
2018-08-03T08:07:22.205Z,31.49
2018-08-03T08:07:47.709Z,31.51
2018-08-03T08:08:13.175Z,31.33
2018-08-03T08:08:38.709Z,31.47
2018-08-03T08:09:04.195Z,31.37
2018-08-03T08:09:29.681Z,31.46
2018-08-03T08:09:55.160Z,31.4
2018-08-03T08:10:20.646Z,31.33
2018-08-03T08:10:46.254Z,31.36
2018-08-03T08:11:11.825Z,31.44
2018-08-03T08:11:37.246Z,31.34
2018-08-03T08:12:02.757Z,31.33
2018-08-03T08:12:28.244Z,31.25
2018-08-03T08:12:53.749Z,31.17
2018-08-03T08:13:19.240Z,31.17
2018-08-03T08:13:44.783Z,31.2
2018-08-03T08:14:10.296Z,31.22
2018-08-03T08:14:35.797Z,31.14
2018-08-03T08:15:01.267Z,31.2
2018-08-03T08:15:26.814Z,31.17
2018-08-03T08:15:52.302Z,31.17
2018-08-03T08:16:17.821Z,31.14
2018-08-03T08:16:43.333Z,31.2
2018-08-03T08:17:08.815Z,31.21
2018-08-03T08:17:34.325Z,31.15
2018-08-03T08:17:59.835Z,31.14
2018-08-03T08:18:25.336Z,31.2
2018-08-03T08:18:50.872Z,31.33
2018-08-03T08:19:16.420Z,31.31
2018-08-03T08:19:41.936Z,31.37
2018-08-03T08:20:07.533Z,31.36
2018-08-03T08:20:33.022Z,31.39
2018-08-03T08:20:58.507Z,31.44
2018-08-03T08:21:23.992Z,31.39
2018-08-03T08:21:49.496Z,31.47
2018-08-03T08:22:15.045Z,31.62
2018-08-03T08:22:40.538Z,31.52
2018-08-03T08:23:06.041Z,31.56
2018-08-03T08:23:31.567Z,31.56
2018-08-03T08:23:57.138Z,31.69
2018-08-03T08:25:00.762Z,31.65
2018-08-03T08:25:26.336Z,31.61
2018-08-03T08:26:24.942Z,31.71
2018-08-03T08:26:50.432Z,31.56
2018-08-03T08:27:15.912Z,31.64
2018-08-03T08:27:41.412Z,31.69
2018-08-03T08:28:06.926Z,31.69
2018-08-03T08:28:32.441Z,31.61
2018-08-03T08:28:57.935Z,31.64
2018-08-03T08:29:23.603Z,31.65
2018-08-03T08:29:49.020Z,31.7
2018-08-03T08:30:14.493Z,31.74
2018-08-03T08:30:40.023Z,31.78
2018-08-03T08:31:05.629Z,31.85
2018-08-03T08:31:31.154Z,31.81
2018-08-03T08:31:56.608Z,31.81
2018-08-03T08:32:22.107Z,31.94
2018-08-03T08:32:47.589Z,31.97
2018-08-03T08:33:13.126Z,32.03
2018-08-03T08:33:38.624Z,31.99
2018-08-03T08:34:04.123Z,31.99
2018-08-03T08:34:29.599Z,32.09
2018-08-03T08:34:55.099Z,32.19
2018-08-03T08:35:20.637Z,32.21
2018-08-03T08:35:46.122Z,32.26
2018-08-03T08:36:11.628Z,32.23
2018-08-03T08:36:37.142Z,32.26
2018-08-03T08:37:02.689Z,32.29
2018-08-03T08:37:28.339Z,32.41
2018-08-03T08:37:53.736Z,32.43
2018-08-03T08:38:19.212Z,32.36
2018-08-03T08:38:44.779Z,32.52
2018-08-03T08:39:10.298Z,32.56
2018-08-03T08:39:35.848Z,32.53
2018-08-03T08:40:01.367Z,32.53
2018-08-03T08:40:26.847Z,32.45
2018-08-03T08:40:52.375Z,32.43
2018-08-03T08:41:17.883Z,32.38
2018-08-03T08:41:43.460Z,32.37
2018-08-03T08:42:08.934Z,32.38
2018-08-03T08:42:34.471Z,32.4
2018-08-03T08:42:59.942Z,32.43
2018-08-03T08:43:25.590Z,32.45
2018-08-03T08:43:51.042Z,32.33
2018-08-03T08:44:16.562Z,32.41
2018-08-03T08:44:42.079Z,32.4
2018-08-03T08:45:07.594Z,32.41
2018-08-03T08:45:33.122Z,32.48
2018-08-03T08:45:58.658Z,32.43
2018-08-03T08:46:24.263Z,32.46
2018-08-03T08:46:49.778Z,32.51
2018-08-03T08:47:15.410Z,32.52
2018-08-03T08:47:40.852Z,32.52
2018-08-03T08:48:06.338Z,32.41
2018-08-03T08:48:31.868Z,32.49
2018-08-03T08:48:57.345Z,32.38
2018-08-03T08:49:22.866Z,32.45
2018-08-03T08:49:48.458Z,32.37
2018-08-03T08:50:13.920Z,32.43
2018-08-03T08:51:12.452Z,32.41
2018-08-03T08:51:38.126Z,32.46
2018-08-03T08:52:03.498Z,32.4
2018-08-03T08:52:29.000Z,32.46
2018-08-03T08:52:54.595Z,32.43
2018-08-03T08:53:20.201Z,32.37
2018-08-03T08:53:45.692Z,32.4
2018-08-03T08:54:11.198Z,32.38
2018-08-03T08:54:36.742Z,32.48
2018-08-03T08:55:02.194Z,32.49
2018-08-03T08:55:27.678Z,32.53
2018-08-03T08:55:53.197Z,32.55
2018-08-03T08:56:18.700Z,32.55
2018-08-03T08:56:44.212Z,32.59
2018-08-03T08:57:09.770Z,32.56
2018-08-03T08:57:35.244Z,32.63
2018-08-03T08:58:00.773Z,32.64
2018-08-03T08:58:26.256Z,32.78
2018-08-03T08:58:51.814Z,32.82
2018-08-03T08:59:54.945Z,32.82
2018-08-03T09:00:21.776Z,32.77
2018-08-03T09:00:47.294Z,32.82
2018-08-03T09:01:12.824Z,32.85
2018-08-03T09:01:38.288Z,32.85
2018-08-03T09:02:03.758Z,32.86
2018-08-03T09:02:29.233Z,32.86
2018-08-03T09:02:54.892Z,32.86
2018-08-03T09:03:20.342Z,32.87
2018-08-03T09:03:45.922Z,32.9
2018-08-03T09:04:11.313Z,33
2018-08-03T09:04:36.835Z,32.95
2018-08-03T09:05:02.380Z,32.89
2018-08-03T09:05:27.941Z,32.93
2018-08-03T09:05:53.865Z,32.92
2018-08-03T09:06:19.434Z,33.02
2018-08-03T09:06:44.946Z,32.9
2018-08-03T09:07:10.373Z,32.95
2018-08-03T09:07:35.944Z,32.93
2018-08-03T09:08:01.385Z,32.86
2018-08-03T09:08:26.933Z,32.89
2018-08-03T09:08:52.464Z,32.97
2018-08-03T09:10:01.166Z,33.02
2018-08-03T09:10:26.701Z,32.92
2018-08-03T09:10:52.217Z,32.97
2018-08-03T09:11:17.714Z,32.96
2018-08-03T09:11:43.210Z,33.02
2018-08-03T09:12:08.764Z,33.01
2018-08-03T09:12:34.301Z,33.12
2018-08-03T09:12:59.877Z,33.14
2018-08-03T09:13:25.369Z,33.12
2018-08-03T09:13:50.893Z,33.23
2018-08-03T09:14:39.195Z,33.31
2018-08-03T09:15:04.697Z,33.39
2018-08-03T09:15:30.228Z,33.39
2018-08-03T09:15:55.771Z,33.3
2018-08-03T09:16:21.275Z,33.32
2018-08-03T09:16:46.786Z,33.43
2018-08-03T09:17:12.310Z,33.37
2018-08-03T09:17:37.835Z,33.37
2018-08-03T09:18:03.336Z,33.27
2018-08-03T09:18:28.949Z,33.2
2018-08-03T09:18:54.467Z,33.07
2018-08-03T09:19:20.000Z,33.05
2018-08-03T09:19:45.610Z,33.07
2018-08-03T09:20:11.118Z,33.04
2018-08-03T09:20:36.659Z,33.01
2018-08-03T09:21:02.137Z,33.04
2018-08-03T09:21:27.615Z,32.87
2018-08-03T09:21:53.132Z,32.89
2018-08-03T09:22:18.668Z,32.89
2018-08-03T09:22:44.136Z,32.87
2018-08-03T09:23:09.660Z,32.86
2018-08-03T09:23:35.171Z,32.9
2018-08-03T09:24:00.696Z,32.9
2018-08-03T09:24:26.228Z,32.97
2018-08-03T09:24:51.726Z,32.95
2018-08-03T09:25:17.230Z,33.04
2018-08-03T09:25:42.771Z,33.01
2018-08-03T09:26:08.232Z,33.04
2018-08-03T09:26:33.778Z,33.07
2018-08-03T09:26:59.291Z,33.05
2018-08-03T09:27:24.777Z,33.04
2018-08-03T09:27:50.281Z,32.95
2018-08-03T09:28:15.773Z,32.95
2018-08-03T09:28:41.268Z,32.93
2018-08-03T09:29:06.785Z,32.96
2018-08-03T09:29:32.267Z,32.93
2018-08-03T09:29:57.765Z,32.97
2018-08-03T09:30:23.302Z,32.89
2018-08-03T09:30:48.768Z,32.87
2018-08-03T09:31:14.274Z,32.87
2018-08-03T09:31:39.769Z,32.82
2018-08-03T09:32:05.273Z,32.7
2018-08-03T09:32:30.765Z,32.78
2018-08-03T09:32:56.304Z,32.74
2018-08-03T09:33:21.788Z,32.68
2018-08-03T09:33:47.288Z,32.78
2018-08-03T09:34:12.816Z,32.77
2018-08-03T09:34:38.324Z,32.83
2018-08-03T09:35:03.807Z,32.75
2018-08-03T09:35:29.259Z,32.92
2018-08-03T09:35:54.801Z,32.86
2018-08-03T09:36:20.277Z,32.89
2018-08-03T09:36:45.747Z,32.93
2018-08-03T09:37:11.296Z,33.04
2018-08-03T09:37:36.783Z,32.92
2018-08-03T09:38:02.292Z,33.05
2018-08-03T09:38:27.853Z,33.08
2018-08-03T09:38:53.338Z,33.14
2018-08-03T09:39:46.800Z,33.12
2018-08-03T09:40:12.283Z,33.14
2018-08-03T09:40:37.788Z,33.2
2018-08-03T09:41:03.281Z,33.22
2018-08-03T09:41:28.799Z,33.34
2018-08-03T09:41:54.309Z,33.36
2018-08-03T09:42:19.770Z,33.42
2018-08-03T09:42:45.258Z,33.37
2018-08-03T09:43:10.716Z,33.53
2018-08-03T09:43:36.201Z,33.5
2018-08-03T09:44:01.735Z,33.47
2018-08-03T09:44:27.179Z,33.61
2018-08-03T09:44:52.684Z,33.62
2018-08-03T09:45:18.215Z,33.61
2018-08-03T09:45:43.713Z,33.62
2018-08-03T09:46:09.219Z,33.61
2018-08-03T09:46:34.709Z,33.57
2018-08-03T09:47:00.167Z,33.57